weather.gov     
National Weather Service

Terminal Aerodrome Forecast
NWS Homepage
This page is being discontinued on March 12, 2014.
The same data is available at this site. Please update your bookmarks.
Thank you, and we apologize for the inconvenience.
Please send an email to SR-SRH.Webmaster@noaa.gov with any concerns.


Current Version
Previous Version:    01  02  03  04  05  06  07  08  09  10  11  12  13  14  15  16  17  18  19  20  21  22  23  24  25  26  27  28  29  30  
   31  32  33  34  35  36  37  
[Printable]
468
FTUS43 KGRB 231700
TAFRHI
TAF
KRHI 231720Z 2318/2418 18007KT 1/4SM FG VV002
      TEMPO 2318/2321 1/2SM -DZ FG OVC004
     FM232100 16004KT 1/2SM -DZ FG OVC003
     FM240100 VRB03KT 1/2SM -RA FG OVC002
     FM240600 33003KT 1/2SM -RA FG OVC002
     FM241000 32007KT 3/4SM -RA BR OVC003
     FM241300 32009KT 1 1/2SM -SN OVC005
     FM241600 32011G16KT 2SM -SN OVC006=


U.S. Dept. of Commerce
NOAA National Weather Service
1325 East West Highway
Silver Spring, MD 20910
E-mail: w-nws.webmaster@noaa.gov
Page last modified: May 16, 2007
NATIONAL WEATHER SERVICE: for Safety, for Work, for Fun - FOR LIFE